sensor_id;sensor_type;location;lat;lon;timestamp;pressure;altitude;pressure_sealevel;temperature;humidity
29215;BME280;16252;49.816;7.964;2023-05-09T00:02:04;100247.63;;;17.49;66.76
29215;BME280;16252;49.816;7.964;2023-05-09T00:04:30;100304.06;;;17.80;67.00
29215;BME280;16252;49.816;7.964;2023-05-09T00:06:56;100244.53;;;17.44;66.91
29215;BME280;16252;49.816;7.964;2023-05-09T00:09:22;100274.44;;;17.60;66.99
29215;BME280;16252;49.816;7.964;2023-05-09T00:11:47;100266.47;;;17.59;66.89
29215;BME280;16252;49.816;7.964;2023-05-09T00:14:12;100270.34;;;17.56;66.93
29215;BME280;16252;49.816;7.964;2023-05-09T00:16:38;100261.84;;;17.51;66.99
29215;BME280;16252;49.816;7.964;2023-05-09T00:19:03;100261.00;;;17.50;66.86
29215;BME280;16252;49.816;7.964;2023-05-09T00:21:28;100275.38;;;17.51;66.77
29215;BME280;16252;49.816;7.964;2023-05-09T00:23:54;100288.25;;;17.57;66.95
29215;BME280;16252;49.816;7.964;2023-05-09T00:26:20;100270.41;;;17.46;66.95
29215;BME280;16252;49.816;7.964;2023-05-09T00:28:46;100237.06;;;17.20;66.90
29215;BME280;16252;49.816;7.964;2023-05-09T00:31:11;100265.78;;;17.39;66.68
29215;BME280;16252;49.816;7.964;2023-05-09T00:33:37;100271.66;;;17.34;66.64
29215;BME280;16252;49.816;7.964;2023-05-09T00:36:02;100253.81;;;17.23;66.82
29215;BME280;16252;49.816;7.964;2023-05-09T00:38:28;100228.44;;;17.06;66.84
29215;BME280;16252;49.816;7.964;2023-05-09T00:40:53;100274.66;;;17.31;67.13
29215;BME280;16252;49.816;7.964;2023-05-09T00:43:19;100256.13;;;17.18;67.13
29215;BME280;16252;49.816;7.964;2023-05-09T00:45:45;100266.63;;;17.21;67.25
29215;BME280;16252;49.816;7.964;2023-05-09T00:48:10;100255.28;;;17.18;67.18
29215;BME280;16252;49.816;7.964;2023-05-09T00:50:36;100247.03;;;17.19;67.23
29215;BME280;16252;49.816;7.964;2023-05-09T00:53:03;100232.25;;;17.14;67.35
29215;BME280;16252;49.816;7.964;2023-05-09T00:55:28;100241.19;;;17.14;67.32
29215;BME280;16252;49.816;7.964;2023-05-09T00:57:53;100243.00;;;17.23;66.55
29215;BME280;16252;49.816;7.964;2023-05-09T01:00:18;100256.75;;;17.30;66.50
29215;BME280;16252;49.816;7.964;2023-05-09T01:02:50;100250.31;;;17.31;66.52
29215;BME280;16252;49.816;7.964;2023-05-09T01:05:17;100247.16;;;17.18;66.42
29215;BME280;16252;49.816;7.964;2023-05-09T01:07:58;100226.00;;;17.13;66.61
29215;BME280;16252;49.816;7.964;2023-05-09T01:10:37;100239.91;;;17.18;66.74
29215;BME280;16252;49.816;7.964;2023-05-09T01:13:27;100242.00;;;17.24;66.68
29215;BME280;16252;49.816;7.964;2023-05-09T01:16:00;100241.91;;;17.16;66.64
29215;BME280;16252;49.816;7.964;2023-05-09T01:18:44;100236.03;;;17.21;66.99
29215;BME280;16252;49.816;7.964;2023-05-09T01:21:15;100233.50;;;17.19;67.07
29215;BME280;16252;49.816;7.964;2023-05-09T01:26:20;100207.13;;;17.03;67.27
29215;BME280;16252;49.816;7.964;2023-05-09T01:31:18;100176.41;;;16.86;66.92
29215;BME280;16252;49.816;7.964;2023-05-09T01:33:45;100202.75;;;17.02;67.14
29215;BME280;16252;49.816;7.964;2023-05-09T01:36:15;100182.34;;;16.90;67.21
29215;BME280;16252;49.816;7.964;2023-05-09T01:38:41;100186.06;;;16.89;67.22
29215;BME280;16252;49.816;7.964;2023-05-09T01:41:09;100190.38;;;17.00;67.33
29215;BME280;16252;49.816;7.964;2023-05-09T01:43:37;100207.63;;;17.17;67.28
29215;BME280;16252;49.816;7.964;2023-05-09T01:46:04;100191.47;;;17.07;67.04
29215;BME280;16252;49.816;7.964;2023-05-09T01:48:30;100199.34;;;17.18;66.90
29215;BME280;16252;49.816;7.964;2023-05-09T01:50:56;100202.88;;;17.19;66.61
29215;BME280;16252;49.816;7.964;2023-05-09T01:53:23;100200.34;;;17.17;66.65
29215;BME280;16252;49.816;7.964;2023-05-09T01:55:50;100195.41;;;17.13;66.51
29215;BME280;16252;49.816;7.964;2023-05-09T01:58:17;100207.13;;;17.21;66.67
29215;BME280;16252;49.816;7.964;2023-05-09T02:00:44;100206.47;;;17.19;66.72
29215;BME280;16252;49.816;7.964;2023-05-09T02:03:11;100209.25;;;17.09;66.87
29215;BME280;16252;49.816;7.964;2023-05-09T02:05:37;100197.78;;;16.98;67.04
29215;BME280;16252;49.816;7.964;2023-05-09T02:08:03;100200.19;;;17.01;66.98
29215;BME280;16252;49.816;7.964;2023-05-09T02:10:29;100197.88;;;17.06;66.88
29215;BME280;16252;49.816;7.964;2023-05-09T02:12:55;100186.53;;;17.02;67.04
29215;BME280;16252;49.816;7.964;2023-05-09T02:15:21;100206.22;;;17.13;67.09
29215;BME280;16252;49.816;7.964;2023-05-09T02:17:47;100165.75;;;16.85;66.75
29215;BME280;16252;49.816;7.964;2023-05-09T02:20:12;100155.56;;;16.79;66.86
29215;BME280;16252;49.816;7.964;2023-05-09T02:22:39;100201.81;;;17.11;66.63
29215;BME280;16252;49.816;7.964;2023-05-09T02:25:06;100194.38;;;16.96;66.48
29215;BME280;16252;49.816;7.964;2023-05-09T02:27:37;100180.72;;;16.97;66.81
29215;BME280;16252;49.816;7.964;2023-05-09T02:30:07;100131.75;;;16.64;66.96
29215;BME280;16252;49.816;7.964;2023-05-09T02:32:33;100205.97;;;17.06;66.88
29215;BME280;16252;49.816;7.964;2023-05-09T02:35:01;100190.53;;;16.98;66.80
29215;BME280;16252;49.816;7.964;2023-05-09T02:37:28;100203.59;;;17.03;67.15
29215;BME280;16252;49.816;7.964;2023-05-09T02:39:54;100202.88;;;17.01;67.22
29215;BME280;16252;49.816;7.964;2023-05-09T02:42:21;100175.16;;;16.81;67.07
29215;BME280;16252;49.816;7.964;2023-05-09T02:44:52;100171.88;;;16.77;67.24
29215;BME280;16252;49.816;7.964;2023-05-09T02:47:18;100199.66;;;16.97;67.24
29215;BME280;16252;49.816;7.964;2023-05-09T02:49:43;100163.25;;;16.74;67.20
29215;BME280;16252;49.816;7.964;2023-05-09T02:52:09;100186.06;;;16.89;67.23
29215;BME280;16252;49.816;7.964;2023-05-09T02:54:35;100169.06;;;16.79;67.05
29215;BME280;16252;49.816;7.964;2023-05-09T02:57:00;100179.56;;;16.82;67.09
29215;BME280;16252;49.816;7.964;2023-05-09T02:59:26;100168.44;;;16.85;67.30
29215;BME280;16252;49.816;7.964;2023-05-09T03:01:51;100177.09;;;16.88;67.36
29215;BME280;16252;49.816;7.964;2023-05-09T03:04:16;100166.97;;;16.90;67.33
29215;BME280;16252;49.816;7.964;2023-05-09T03:06:42;100172.69;;;16.87;66.97
29215;BME280;16252;49.816;7.964;2023-05-09T03:09:08;100191.31;;;17.08;66.96
29215;BME280;16252;49.816;7.964;2023-05-09T03:11:34;100159.31;;;16.86;66.97
29215;BME280;16252;49.816;7.964;2023-05-09T03:14:01;100188.47;;;17.10;66.70
29215;BME280;16252;49.816;7.964;2023-05-09T03:16:26;100135.69;;;16.88;67.06
29215;BME280;16252;49.816;7.964;2023-05-09T03:18:51;100128.44;;;16.88;66.82
29215;BME280;16252;49.816;7.964;2023-05-09T03:21:17;100148.44;;;16.96;66.68
29215;BME280;16252;49.816;7.964;2023-05-09T03:23:42;100141.66;;;16.92;66.89
29215;BME280;16252;49.816;7.964;2023-05-09T03:26:07;100122.66;;;16.83;66.88
29215;BME280;16252;49.816;7.964;2023-05-09T03:28:32;100146.81;;;17.03;66.98
29215;BME280;16252;49.816;7.964;2023-05-09T03:30:58;100141.81;;;17.08;67.21
29215;BME280;16252;49.816;7.964;2023-05-09T03:33:23;100113.38;;;16.86;67.09
29215;BME280;16252;49.816;7.964;2023-05-09T03:35:48;100126.81;;;16.96;67.01
29215;BME280;16252;49.816;7.964;2023-05-09T03:38:13;100137.69;;;17.04;67.23
29215;BME280;16252;49.816;7.964;2023-05-09T03:40:39;100156.94;;;17.19;67.12
29215;BME280;16252;49.816;7.964;2023-05-09T03:43:05;100125.66;;;16.98;67.28
29215;BME280;16252;49.816;7.964;2023-05-09T03:45:31;100134.84;;;17.05;67.22
29215;BME280;16252;49.816;7.964;2023-05-09T03:47:56;100120.97;;;17.00;67.02
29215;BME280;16252;49.816;7.964;2023-05-09T03:50:22;100137.78;;;17.12;67.08
29215;BME280;16252;49.816;7.964;2023-05-09T03:52:47;100107.44;;;17.00;67.28
29215;BME280;16252;49.816;7.964;2023-05-09T03:55:12;100113.09;;;17.07;67.40
29215;BME280;16252;49.816;7.964;2023-05-09T03:57:37;100139.34;;;17.15;67.48
29215;BME280;16252;49.816;7.964;2023-05-09T04:00:03;100143.97;;;17.22;67.43
29215;BME280;16252;49.816;7.964;2023-05-09T04:02:32;100141.56;;;17.19;67.65
29215;BME280;16252;49.816;7.964;2023-05-09T04:04:57;100102.03;;;17.00;67.60
29215;BME280;16252;49.816;7.964;2023-05-09T04:07:22;100117.31;;;17.09;67.61
29215;BME280;16252;49.816;7.964;2023-05-09T04:09:48;100142.81;;;17.25;67.68
29215;BME280;16252;49.816;7.964;2023-05-09T04:12:14;100135.28;;;17.19;67.67
29215;BME280;16252;49.816;7.964;2023-05-09T04:14:39;100137.16;;;17.18;67.61
29215;BME280;16252;49.816;7.964;2023-05-09T04:17:04;100105.75;;;16.99;67.88
29215;BME280;16252;49.816;7.964;2023-05-09T04:19:30;100127.44;;;17.07;68.03
29215;BME280;16252;49.816;7.964;2023-05-09T04:21:55;100135.63;;;17.16;67.94
29215;BME280;16252;49.816;7.964;2023-05-09T04:24:20;100111.31;;;16.98;67.95
29215;BME280;16252;49.816;7.964;2023-05-09T04:26:46;100129.81;;;17.10;68.08
29215;BME280;16252;49.816;7.964;2023-05-09T04:29:11;100123.03;;;17.06;67.79
29215;BME280;16252;49.816;7.964;2023-05-09T04:31:36;100126.28;;;17.10;67.83
29215;BME280;16252;49.816;7.964;2023-05-09T04:34:02;100124.28;;;17.12;67.66
29215;BME280;16252;49.816;7.964;2023-05-09T04:36:27;100117.47;;;17.08;67.96
29215;BME280;16252;49.816;7.964;2023-05-09T04:38:53;100101.03;;;17.01;68.03
29215;BME280;16252;49.816;7.964;2023-05-09T04:41:18;100124.09;;;17.14;68.05
29215;BME280;16252;49.816;7.964;2023-05-09T04:43:43;100095.56;;;16.93;68.09
29215;BME280;16252;49.816;7.964;2023-05-09T04:46:08;100107.28;;;17.02;68.08
29215;BME280;16252;49.816;7.964;2023-05-09T04:48:34;100139.91;;;17.26;68.31
29215;BME280;16252;49.816;7.964;2023-05-09T04:51:00;100130.81;;;17.27;68.30
29215;BME280;16252;49.816;7.964;2023-05-09T04:53:25;100095.00;;;17.07;68.28
29215;BME280;16252;49.816;7.964;2023-05-09T04:55:52;100071.78;;;16.97;68.33
29215;BME280;16252;49.816;7.964;2023-05-09T04:58:18;100084.00;;;17.09;68.51
29215;BME280;16252;49.816;7.964;2023-05-09T05:00:43;100064.34;;;16.99;68.56
29215;BME280;16252;49.816;7.964;2023-05-09T05:03:08;100082.00;;;17.11;68.46
29215;BME280;16252;49.816;7.964;2023-05-09T05:05:33;100069.34;;;17.11;68.73
29215;BME280;16252;49.816;7.964;2023-05-09T05:07:59;100074.81;;;17.20;68.92
29215;BME280;16252;49.816;7.964;2023-05-09T05:10:24;100084.38;;;17.32;69.09
29215;BME280;16252;49.816;7.964;2023-05-09T05:12:49;100078.78;;;17.33;69.36
29215;BME280;16252;49.816;7.964;2023-05-09T05:15:15;100102.00;;;17.44;69.21
29215;BME280;16252;49.816;7.964;2023-05-09T05:17:41;100101.09;;;17.62;69.44
29215;BME280;16252;49.816;7.964;2023-05-09T05:20:07;100099.66;;;17.67;69.17
29215;BME280;16252;49.816;7.964;2023-05-09T05:22:34;100094.06;;;17.69;69.25
29215;BME280;16252;49.816;7.964;2023-05-09T05:25:00;100073.94;;;17.71;68.96
29215;BME280;16252;49.816;7.964;2023-05-09T05:27:27;100070.53;;;17.69;69.06
29215;BME280;16252;49.816;7.964;2023-05-09T05:29:52;100088.13;;;17.91;68.82
29215;BME280;16252;49.816;7.964;2023-05-09T05:32:18;100080.66;;;17.85;68.81
29215;BME280;16252;49.816;7.964;2023-05-09T05:34:43;100085.06;;;17.94;68.76
29215;BME280;16252;49.816;7.964;2023-05-09T05:37:08;100088.31;;;17.98;68.72
29215;BME280;16252;49.816;7.964;2023-05-09T05:39:33;100041.66;;;17.70;68.23
29215;BME280;16252;49.816;7.964;2023-05-09T05:41:59;100100.03;;;18.07;68.45
29215;BME280;16252;49.816;7.964;2023-05-09T05:44:24;100056.91;;;17.79;68.31
29215;BME280;16252;49.816;7.964;2023-05-09T05:46:49;100090.00;;;17.99;68.30
29215;BME280;16252;49.816;7.964;2023-05-09T05:49:15;100053.75;;;17.92;68.29
29215;BME280;16252;49.816;7.964;2023-05-09T05:51:40;100087.38;;;18.15;68.42
29215;BME280;16252;49.816;7.964;2023-05-09T05:54:05;100092.47;;;18.18;68.29
29215;BME280;16252;49.816;7.964;2023-05-09T05:56:30;100081.28;;;18.13;68.35
29215;BME280;16252;49.816;7.964;2023-05-09T05:58:56;100071.78;;;18.09;68.32
29215;BME280;16252;49.816;7.964;2023-05-09T06:01:21;100050.56;;;17.96;68.51
29215;BME280;16252;49.816;7.964;2023-05-09T06:03:46;100087.41;;;18.24;68.49
29215;BME280;16252;49.816;7.964;2023-05-09T06:06:13;100085.88;;;18.21;68.32
29215;BME280;16252;49.816;7.964;2023-05-09T06:08:39;100102.69;;;18.41;68.38
29215;BME280;16252;49.816;7.964;2023-05-09T06:11:04;100097.28;;;18.41;68.44
29215;BME280;16252;49.816;7.964;2023-05-09T06:13:30;100100.31;;;18.46;68.12
29215;BME280;16252;49.816;7.964;2023-05-09T06:15:55;100074.06;;;18.38;68.13
29215;BME280;16252;49.816;7.964;2023-05-09T06:18:21;100082.34;;;18.45;67.93
29215;BME280;16252;49.816;7.964;2023-05-09T06:20:46;100060.34;;;18.40;67.89
29215;BME280;16252;49.816;7.964;2023-05-09T06:23:11;100051.53;;;18.38;68.08
29215;BME280;16252;49.816;7.964;2023-05-09T06:25:37;100081.88;;;18.58;68.04
29215;BME280;16252;49.816;7.964;2023-05-09T06:28:02;100059.69;;;18.54;68.22
29215;BME280;16252;49.816;7.964;2023-05-09T06:30:27;100043.44;;;18.54;68.34
29215;BME280;16252;49.816;7.964;2023-05-09T06:32:53;100042.94;;;18.59;68.21
29215;BME280;16252;49.816;7.964;2023-05-09T06:35:18;100040.56;;;18.64;68.03
29215;BME280;16252;49.816;7.964;2023-05-09T06:37:44;100053.66;;;18.77;68.16
29215;BME280;16252;49.816;7.964;2023-05-09T06:40:09;100050.94;;;18.77;68.30
29215;BME280;16252;49.816;7.964;2023-05-09T06:42:35;100052.81;;;18.84;68.33
29215;BME280;16252;49.816;7.964;2023-05-09T06:45:00;100003.47;;;18.56;67.99
29215;BME280;16252;49.816;7.964;2023-05-09T06:47:25;100050.25;;;18.91;68.35
29215;BME280;16252;49.816;7.964;2023-05-09T06:49:50;100040.94;;;18.94;68.05
29215;BME280;16252;49.816;7.964;2023-05-09T06:52:16;100063.78;;;19.16;67.77
29215;BME280;16252;49.816;7.964;2023-05-09T06:54:41;100048.03;;;19.19;67.88
29215;BME280;16252;49.816;7.964;2023-05-09T06:57:06;100039.75;;;19.13;67.84
29215;BME280;16252;49.816;7.964;2023-05-09T06:59:32;100023.47;;;19.13;67.72
29215;BME280;16252;49.816;7.964;2023-05-09T07:01:57;100048.72;;;19.30;67.62
29215;BME280;16252;49.816;7.964;2023-05-09T07:04:23;100024.13;;;19.23;67.53
29215;BME280;16252;49.816;7.964;2023-05-09T07:06:48;100031.91;;;19.26;67.25
29215;BME280;16252;49.816;7.964;2023-05-09T07:09:13;100019.38;;;19.25;67.55
29215;BME280;16252;49.816;7.964;2023-05-09T07:11:41;100030.22;;;19.33;67.51
29215;BME280;16252;49.816;7.964;2023-05-09T07:14:06;100038.16;;;19.43;67.64
29215;BME280;16252;49.816;7.964;2023-05-09T07:16:32;100028.63;;;19.47;67.57
29215;BME280;16252;49.816;7.964;2023-05-09T07:18:57;100008.34;;;19.35;67.48
29215;BME280;16252;49.816;7.964;2023-05-09T07:21:22;100009.63;;;19.47;67.63
29215;BME280;16252;49.816;7.964;2023-05-09T07:23:48;99978.50;;;19.35;67.45
29215;BME280;16252;49.816;7.964;2023-05-09T07:26:13;99992.66;;;19.53;67.58
29215;BME280;16252;49.816;7.964;2023-05-09T07:28:38;99998.06;;;19.61;67.21
29215;BME280;16252;49.816;7.964;2023-05-09T07:31:03;99991.44;;;19.64;67.31
29215;BME280;16252;49.816;7.964;2023-05-09T07:33:30;100011.25;;;19.81;66.80
29215;BME280;16252;49.816;7.964;2023-05-09T07:35:57;99991.09;;;19.75;66.93
29215;BME280;16252;49.816;7.964;2023-05-09T07:38:22;99987.03;;;19.71;66.91
29215;BME280;16252;49.816;7.964;2023-05-09T07:40:48;99978.03;;;19.70;66.89
29215;BME280;16252;49.816;7.964;2023-05-09T07:43:13;99989.69;;;19.79;66.50
29215;BME280;16252;49.816;7.964;2023-05-09T07:45:38;99973.94;;;19.75;66.72
29215;BME280;16252;49.816;7.964;2023-05-09T07:48:04;99933.81;;;19.54;66.69
29215;BME280;16252;49.816;7.964;2023-05-09T07:50:29;99969.38;;;19.75;66.88
29215;BME280;16252;49.816;7.964;2023-05-09T07:52:54;99965.47;;;19.78;66.79
29215;BME280;16252;49.816;7.964;2023-05-09T07:55:20;99948.00;;;19.72;67.17
29215;BME280;16252;49.816;7.964;2023-05-09T07:57:45;99950.69;;;19.80;66.96
29215;BME280;16252;49.816;7.964;2023-05-09T08:00:11;99966.91;;;19.88;67.08
29215;BME280;16252;49.816;7.964;2023-05-09T08:02:36;99958.59;;;19.90;67.13
29215;BME280;16252;49.816;7.964;2023-05-09T08:05:01;99956.75;;;19.90;67.14
29215;BME280;16252;49.816;7.964;2023-05-09T08:07:27;99932.69;;;19.79;67.19
29215;BME280;16252;49.816;7.964;2023-05-09T08:09:52;99956.47;;;20.00;67.09
29215;BME280;16252;49.816;7.964;2023-05-09T08:12:17;99947.69;;;19.98;66.92
29215;BME280;16252;49.816;7.964;2023-05-09T08:14:43;99895.22;;;19.75;67.01
29215;BME280;16252;49.816;7.964;2023-05-09T08:17:08;99939.50;;;20.06;66.88
29215;BME280;16252;49.816;7.964;2023-05-09T08:19:33;99941.84;;;20.09;66.54
29215;BME280;16252;49.816;7.964;2023-05-09T08:21:59;99931.72;;;20.03;66.25
29215;BME280;16252;49.816;7.964;2023-05-09T08:24:24;99926.28;;;20.03;66.66
29215;BME280;16252;49.816;7.964;2023-05-09T08:26:50;99921.97;;;20.09;66.35
29215;BME280;16252;49.816;7.964;2023-05-09T08:29:15;99919.44;;;20.07;66.54
29215;BME280;16252;49.816;7.964;2023-05-09T08:31:41;99939.06;;;20.18;66.28
29215;BME280;16252;49.816;7.964;2023-05-09T08:34:07;99912.81;;;20.10;66.35
29215;BME280;16252;49.816;7.964;2023-05-09T08:36:32;99917.91;;;20.13;66.59
29215;BME280;16252;49.816;7.964;2023-05-09T08:38:58;99921.91;;;20.17;66.69
29215;BME280;16252;49.816;7.964;2023-05-09T08:41:26;99904.31;;;20.13;66.47
29215;BME280;16252;49.816;7.964;2023-05-09T08:43:55;99937.59;;;20.30;66.70
29215;BME280;16252;49.816;7.964;2023-05-09T08:46:32;99931.09;;;20.39;66.87
29215;BME280;16252;49.816;7.964;2023-05-09T08:48:59;99929.59;;;20.37;67.06
29215;BME280;16252;49.816;7.964;2023-05-09T08:51:25;99909.22;;;20.32;67.14
29215;BME280;16252;49.816;7.964;2023-05-09T08:53:51;99870.00;;;20.12;67.12
29215;BME280;16252;49.816;7.964;2023-05-09T08:56:16;99918.09;;;20.49;66.88
29215;BME280;16252;49.816;7.964;2023-05-09T08:58:42;99929.28;;;20.54;66.47
29215;BME280;16252;49.816;7.964;2023-05-09T09:01:08;99916.16;;;20.58;66.24
29215;BME280;16252;49.816;7.964;2023-05-09T09:03:36;99899.22;;;20.56;66.51
29215;BME280;16252;49.816;7.964;2023-05-09T09:06:01;99887.38;;;20.49;65.97
29215;BME280;16252;49.816;7.964;2023-05-09T09:08:27;99847.78;;;20.31;66.03
29215;BME280;16252;49.816;7.964;2023-05-09T09:10:54;99902.16;;;20.69;66.21
29215;BME280;16252;49.816;7.964;2023-05-09T09:13:19;99892.78;;;20.72;66.08
29215;BME280;16252;49.816;7.964;2023-05-09T09:15:47;99894.56;;;20.80;66.32
29215;BME280;16252;49.816;7.964;2023-05-09T09:18:21;99891.88;;;20.94;65.83
29215;BME280;16252;49.816;7.964;2023-05-09T09:20:50;99900.69;;;20.96;65.60
29215;BME280;16252;49.816;7.964;2023-05-09T09:23:18;99887.09;;;20.96;66.06
29215;BME280;16252;49.816;7.964;2023-05-09T09:25:47;99886.50;;;21.01;65.79
29215;BME280;16252;49.816;7.964;2023-05-09T09:28:13;99865.31;;;20.96;66.19
29215;BME280;16252;49.816;7.964;2023-05-09T09:30:46;99861.06;;;21.09;66.21
29215;BME280;16252;49.816;7.964;2023-05-09T09:33:22;99860.63;;;21.20;65.98
29215;BME280;16252;49.816;7.964;2023-05-09T09:35:49;99875.34;;;21.40;65.81
29215;BME280;16252;49.816;7.964;2023-05-09T09:38:19;99872.59;;;21.55;65.07
29215;BME280;16252;49.816;7.964;2023-05-09T09:43:16;99833.03;;;21.59;65.12
29215;BME280;16252;49.816;7.964;2023-05-09T09:45:41;99849.16;;;21.76;64.66
29215;BME280;16252;49.816;7.964;2023-05-09T09:48:07;99837.53;;;21.89;64.17
29215;BME280;16252;49.816;7.964;2023-05-09T09:50:32;99830.88;;;21.91;63.91
29215;BME280;16252;49.816;7.964;2023-05-09T09:52:57;99852.63;;;22.13;63.75
29215;BME280;16252;49.816;7.964;2023-05-09T09:55:24;99800.91;;;21.91;63.83
29215;BME280;16252;49.816;7.964;2023-05-09T09:57:50;99812.00;;;22.18;64.58
29215;BME280;16252;49.816;7.964;2023-05-09T10:00:17;99800.28;;;22.39;64.61
29215;BME280;16252;49.816;7.964;2023-05-09T10:07:49;99799.63;;;23.00;61.83
29215;BME280;16252;49.816;7.964;2023-05-09T10:10:14;99760.94;;;22.89;62.52
29215;BME280;16252;49.816;7.964;2023-05-09T10:12:42;99769.69;;;23.26;61.45
29215;BME280;16252;49.816;7.964;2023-05-09T10:15:09;99747.47;;;23.36;61.88
29215;BME280;16252;49.816;7.964;2023-05-09T10:17:35;99773.38;;;23.80;60.90
29215;BME280;16252;49.816;7.964;2023-05-09T10:20:03;99785.81;;;24.16;60.57
29215;BME280;16252;49.816;7.964;2023-05-09T10:22:31;99787.03;;;24.40;60.73
29215;BME280;16252;49.816;7.964;2023-05-09T10:25:02;99792.72;;;24.72;60.50
29215;BME280;16252;49.816;7.964;2023-05-09T10:27:30;99790.13;;;24.90;59.68
29215;BME280;16252;49.816;7.964;2023-05-09T10:30:02;99793.41;;;25.12;59.40
29215;BME280;16252;49.816;7.964;2023-05-09T10:35:15;99772.94;;;25.21;58.43
29215;BME280;16252;49.816;7.964;2023-05-09T10:37:41;99766.66;;;25.21;57.37
29215;BME280;16252;49.816;7.964;2023-05-09T10:40:07;99757.84;;;25.05;57.85
29215;BME280;16252;49.816;7.964;2023-05-09T10:42:34;99737.72;;;24.86;57.67
29215;BME280;16252;49.816;7.964;2023-05-09T10:44:59;99738.19;;;24.70;56.70
29215;BME280;16252;49.816;7.964;2023-05-09T10:47:26;99757.16;;;24.72;56.73
29215;BME280;16252;49.816;7.964;2023-05-09T10:49:52;99724.41;;;24.32;56.92
29215;BME280;16252;49.816;7.964;2023-05-09T10:52:20;99759.09;;;24.31;57.32
29215;BME280;16252;49.816;7.964;2023-05-09T10:54:57;99757.44;;;24.23;57.98
29215;BME280;16252;49.816;7.964;2023-05-09T10:57:22;99743.34;;;23.87;58.58
29215;BME280;16252;49.816;7.964;2023-05-09T10:59:49;99749.66;;;23.74;59.35
29215;BME280;16252;49.816;7.964;2023-05-09T11:02:18;99725.00;;;23.54;64.38
29215;BME280;16252;49.816;7.964;2023-05-09T11:04:45;99714.47;;;23.18;65.56
29215;BME280;16252;49.816;7.964;2023-05-09T11:07:24;99722.81;;;23.03;65.95
29215;BME280;16252;49.816;7.964;2023-05-09T11:10:07;99711.34;;;22.72;66.74
29215;BME280;16252;49.816;7.964;2023-05-09T11:12:33;99712.66;;;22.42;67.14
29215;BME280;16252;49.816;7.964;2023-05-09T11:15:07;99716.16;;;22.36;67.79
29215;BME280;16252;49.816;7.964;2023-05-09T11:17:37;99722.72;;;22.13;67.36
29215;BME280;16252;49.816;7.964;2023-05-09T11:20:04;99697.31;;;21.78;66.76
29215;BME280;16252;49.816;7.964;2023-05-09T11:22:37;99717.00;;;21.80;66.87
29215;BME280;16252;49.816;7.964;2023-05-09T11:25:12;99710.19;;;21.62;66.88
29215;BME280;16252;49.816;7.964;2023-05-09T11:27:43;99708.69;;;21.60;67.66
29215;BME280;16252;49.816;7.964;2023-05-09T11:30:11;99691.13;;;21.41;66.31
29215;BME280;16252;49.816;7.964;2023-05-09T11:35:14;99687.44;;;21.34;65.77
29215;BME280;16252;49.816;7.964;2023-05-09T11:38:00;99708.75;;;21.45;66.00
29215;BME280;16252;49.816;7.964;2023-05-09T11:40:27;99680.91;;;21.28;66.71
29215;BME280;16252;49.816;7.964;2023-05-09T11:42:54;99680.84;;;21.21;66.44
29215;BME280;16252;49.816;7.964;2023-05-09T11:45:21;99691.72;;;21.21;66.47
29215;BME280;16252;49.816;7.964;2023-05-09T11:47:47;99670.16;;;20.98;66.43
29215;BME280;16252;49.816;7.964;2023-05-09T11:50:14;99685.72;;;21.05;67.39
29215;BME280;16252;49.816;7.964;2023-05-09T11:52:40;99689.56;;;20.95;67.79
29215;BME280;16252;49.816;7.964;2023-05-09T11:55:07;99682.56;;;20.86;68.19
29215;BME280;16252;49.816;7.964;2023-05-09T11:57:35;99658.06;;;20.65;68.44
29215;BME280;16252;49.816;7.964;2023-05-09T12:00:04;99652.63;;;20.65;68.25
29215;BME280;16252;49.816;7.964;2023-05-09T12:02:30;99624.91;;;20.40;68.63
29215;BME280;16252;49.816;7.964;2023-05-09T12:04:55;99652.63;;;20.50;68.35
29215;BME280;16252;49.816;7.964;2023-05-09T12:07:21;99645.22;;;20.44;68.41
29215;BME280;16252;49.816;7.964;2023-05-09T12:09:48;99654.50;;;20.49;68.59
29215;BME280;16252;49.816;7.964;2023-05-09T12:12:14;99652.34;;;20.45;69.31
29215;BME280;16252;49.816;7.964;2023-05-09T12:14:41;99618.63;;;20.24;69.66
29215;BME280;16252;49.816;7.964;2023-05-09T12:17:07;99615.38;;;20.29;70.35
29215;BME280;16252;49.816;7.964;2023-05-09T12:19:32;99575.03;;;20.11;70.71
29215;BME280;16252;49.816;7.964;2023-05-09T12:21:59;99611.75;;;20.43;70.16
29215;BME280;16252;49.816;7.964;2023-05-09T12:24:26;99627.31;;;20.64;70.72
29215;BME280;16252;49.816;7.964;2023-05-09T12:26:53;99609.31;;;20.63;70.84
29215;BME280;16252;49.816;7.964;2023-05-09T12:29:19;99616.59;;;20.77;71.42
29215;BME280;16252;49.816;7.964;2023-05-09T12:31:45;99606.41;;;20.86;70.79
29215;BME280;16252;49.816;7.964;2023-05-09T12:34:11;99584.66;;;20.86;70.19
29215;BME280;16252;49.816;7.964;2023-05-09T12:36:36;99601.06;;;21.14;69.64
29215;BME280;16252;49.816;7.964;2023-05-09T12:39:07;99610.34;;;21.27;69.28
29215;BME280;16252;49.816;7.964;2023-05-09T12:41:34;99603.69;;;21.29;68.80
29215;BME280;16252;49.816;7.964;2023-05-09T12:44:06;99562.75;;;21.09;68.60
29215;BME280;16252;49.816;7.964;2023-05-09T12:46:32;99581.09;;;21.29;68.30
29215;BME280;16252;49.816;7.964;2023-05-09T12:48:57;99563.03;;;21.21;67.69
29215;BME280;16252;49.816;7.964;2023-05-09T12:51:22;99569.31;;;21.21;67.39
29215;BME280;16252;49.816;7.964;2023-05-09T12:53:48;99580.69;;;21.32;67.34
29215;BME280;16252;49.816;7.964;2023-05-09T12:56:15;99589.25;;;21.29;67.38
29215;BME280;16252;49.816;7.964;2023-05-09T12:58:47;99587.38;;;21.29;67.54
29215;BME280;16252;49.816;7.964;2023-05-09T13:01:14;99565.47;;;21.09;68.01
29215;BME280;16252;49.816;7.964;2023-05-09T13:03:39;99585.78;;;21.13;67.75
29215;BME280;16252;49.816;7.964;2023-05-09T13:06:10;99586.56;;;21.07;68.23
29215;BME280;16252;49.816;7.964;2023-05-09T13:08:37;99587.31;;;21.01;68.77
29215;BME280;16252;49.816;7.964;2023-05-09T13:11:03;99582.41;;;20.90;69.23